Latest Coastal Weather Observations for South Channel Island

IDV60701

Issued at 5:22 pm EDT Tuesday 19 January 2021 (issued every 10 minutes, with the page automatically refreshed every 10 minutes)

About coastal observations | Map of coastal stations | Coastal observations for VIC | Marine services | Other Formats
Station Details ID: 086344 Name: SOUTH CHANNEL ISLAND Lat: -38.31 Lon: 144.80 Height: 9.0 m
Data from the previous 72 hours. | See also: Recent months at South Channel Island
Date/Time
EDT
Wind Sea
Height
m
Swell Vis
km
Cloud Weather Temp
°C
Press
MSL
hPa
Rain since
9am
mm
Dir  Spd
kts
Gust
kts
Height
m
Period
s
Dir
19/05:00pm S 17 21 - - - - - - - - - -
19/04:30pm S 19 26 - - - - - - - - - -
19/04:00pm S 19 24 - - - - - - - - - -
19/03:30pm S 17 23 - - - - - - - - - -
19/03:00pm S 18 23 - - - - - - - - - -
19/02:30pm S 18 22 - - - - - - - - - -
19/02:00pm SSW 19 25 - - - - - - - - - -
19/01:30pm S 18 23 - - - - - - - - - -
19/01:00pm S 15 19 - - - - - - - - - -
19/12:30pm S 17 21 - - - - - - - - - -
19/12:00pm SSW 17 23 - - - - - - - - - -
19/11:30am S 18 21 - - - - - - - - - -
19/11:00am S 16 21 - - - - - - - - - -
19/10:30am S 20 26 - - - - - - - - - -
19/10:00am S 18 21 - - - - - - - - - -
19/09:30am S 18 22 - - - - - - - - - -
19/09:00am S 17 22 - - - - - - - - - -
19/08:30am S 18 22 - - - - - - - - - -
19/08:00am S 18 21 - - - - - - - - - -
19/07:30am S 18 23 - - - - - - - - - -
19/07:00am S 19 21 - - - - - - - - - -
19/06:30am SSW 17 21 - - - - - - - - - -
19/06:00am SSW 17 21 - - - - - - - - - -
19/05:30am SSW 19 23 - - - - - - - - - -
19/05:00am S 19 25 - - - - - - - - - -
19/04:30am S 20 25 - - - - - - - - - -
19/04:00am SSW 21 25 - - - - - - - - - -
19/03:30am SSW 22 25 - - - - - - - - - -
19/03:00am SSW 20 24 - - - - - - - - - -
19/02:30am SSW 20 24 - - - - - - - - - -
19/02:00am SSW 21 26 - - - - - - - - - -
19/01:30am SSW 20 26 - - - - - - - - - -
19/01:00am SSW 22 27 - - - - - - - - - -
19/12:30am SSW 21 24 - - - - - - - - - -
19/12:00am SW 22 26 - - - - - - - - - -
 
Date/Time
EDT
Wind Sea
Height
m
Swell Vis
km
Cloud Weather Temp
°C
Press
MSL
hPa
Rain since
9am
mm
Dir  Spd
kts
Gust
kts
Height
m
Period
s
Dir
18/11:30pm SW 19 22 - - - - - - - - - -
18/11:00pm SW 21 28 - - - - - - - - - -
18/10:30pm SW 24 29 - - - - - - - - - -
18/10:00pm SW 21 25 - - - - - - - - - -
18/09:30pm SW 21 26 - - - - - - - - - -
18/09:11pm SW 20 30 - - - - - - - - - -
18/09:00pm SW 19 24 - - - - - - - - - -
18/08:30pm SW 22 27 - - - - - - - - - -
18/08:00pm SW 30 36 - - - - - - - - - -
18/07:30pm SSW 32 39 - - - - - - - - - -
18/07:00pm SW 28 40 - - - - - - - - - -
18/06:30pm SW 28 33 - - - - - - - - - -
18/06:00pm SW 27 32 - - - - - - - - - -
18/05:30pm SW 26 32 - - - - - - - - - -
18/05:00pm SW 29 34 - - - - - - - - - -
18/04:30pm SW 30 36 - - - - - - - - - -
18/04:00pm SW 31 37 - - - - - - - - - -
18/03:30pm SW 29 32 - - - - - - - - - -
18/03:00pm SSW 26 31 - - - - - - - - - -
18/02:30pm SSW 24 29 - - - - - - - - - -
18/02:00pm SW 22 26 - - - - - - - - - -
18/01:30pm SW 19 22 - - - - - - - - - -
18/01:00pm SW 13 15 - - - - - - - - - -
18/12:30pm SW 11 15 - - - - - - - - - -
18/12:00pm SW 10 14 - - - - - - - - - -
18/11:30am W 11 16 - - - - - - - - - -
18/11:00am WSW 15 18 - - - - - - - - - -
18/10:30am SW 17 21 - - - - - - - - - -
18/10:00am WSW 13 16 - - - - - - - - - -
18/09:30am W 12 15 - - - - - - - - - -
18/09:00am W 14 17 - - - - - - - - - -
18/08:30am W 14 17 - - - - - - - - - -
18/08:00am W 16 20 - - - - - - - - - -
18/07:30am WNW 17 19 - - - - - - - - - -
18/07:00am WNW 17 19 - - - - - - - - - -
18/06:30am W 18 20 - - - - - - - - - -
18/06:00am WNW 17 19 - - - - - - - - - -
18/05:30am W 17 19 - - - - - - - - - -
18/05:00am WNW 17 19 - - - - - - - - - -
18/04:30am WNW 17 20 - - - - - - - - - -
18/04:00am WNW 17 20 - - - - - - - - - -
18/03:30am WNW 18 20 - - - - - - - - - -
18/03:00am WNW 16 18 - - - - - - - - - -
18/02:30am WNW 14 16 - - - - - - - - - -
18/02:00am WNW 14 16 - - - - - - - - - -
18/01:30am WNW 15 17 - - - - - - - - - -
18/01:00am WNW 16 19 - - - - - - - - - -
18/12:30am WSW 17 19 - - - - - - - - - -
18/12:00am SW 18 21 - - - - - - - - - -
 
Date/Time
EDT
Wind Sea
Height
m
Swell Vis
km
Cloud Weather Temp
°C
Press
MSL
hPa
Rain since
9am
mm
Dir  Spd
kts
Gust
kts
Height
m
Period
s
Dir
17/11:30pm SW 20 23 - - - - - - - - - -
17/11:00pm SW 20 23 - - - - - - - - - -
17/10:30pm SW 23 26 - - - - - - - - - -
17/10:00pm SW 23 27 - - - - - - - - - -
17/09:30pm SW 24 28 - - - - - - - - - -
17/09:00pm SW 23 28 - - - - - - - - - -
17/08:30pm SSW 23 27 - - - - - - - - - -
17/08:00pm SSW 21 24 - - - - - - - - - -
17/07:30pm SSW 21 26 - - - - - - - - - -
17/07:00pm SSW 21 26 - - - - - - - - - -
17/06:30pm SSW 21 26 - - - - - - - - - -
17/06:00pm SSW 23 27 - - - - - - - - - -
17/05:30pm SSW 22 27 - - - - - - - - - -
17/05:00pm SSW 21 27 - - - - - - - - - -
17/04:30pm SSW 20 24 - - - - - - - - - -
17/04:00pm SSW 18 21 - - - - - - - - - -
17/03:30pm SSW 19 23 - - - - - - - - - -
17/03:00pm SSW 17 21 - - - - - - - - - -
17/02:30pm SW 17 19 - - - - - - - - - -
17/02:00pm SW 17 21 - - - - - - - - - -
17/01:30pm SW 16 20 - - - - - - - - - -
17/01:00pm SW 19 24 - - - - - - - - - -
17/12:30pm SW 19 22 - - - - - - - - - -
17/12:00pm SW 20 24 - - - - - - - - - -
17/11:30am SW 19 21 - - - - - - - - - -
17/11:00am SW 17 21 - - - - - - - - - -
17/10:30am SW 16 20 - - - - - - - - - -
17/10:00am SW 16 19 - - - - - - - - - -
17/09:30am SW 17 20 - - - - - - - - - -
17/09:00am SSW 16 20 - - - - - - - - - -
17/08:30am SW 15 17 - - - - - - - - - -
17/08:00am WSW 14 18 - - - - - - - - - -
17/07:30am SSW 15 18 - - - - - - - - - -
17/07:00am SSW 17 19 - - - - - - - - - -
17/06:30am SW 18 21 - - - - - - - - - -
17/06:00am SW 18 20 - - - - - - - - - -
17/05:30am SW 21 26 - - - - - - - - - -
17/05:00am SW 19 22 - - - - - - - - - -
17/04:30am WSW 19 22 - - - - - - - - - -
17/04:00am SW 19 21 - - - - - - - - - -
17/03:30am SW 19 22 - - - - - - - - - -
17/03:00am SW 19 22 - - - - - - - - - -
17/02:30am SW 18 20 - - - - - - - - - -
17/02:00am SW 17 22 - - - - - - - - - -
17/01:38am SW 19 29 - - - - - - - - - -
17/01:30am WSW 20 26 - - - - - - - - - -
17/01:00am SSW 19 23 - - - - - - - - - -
17/12:30am SW 20 23 - - - - - - - - - -
17/12:00am SW 21 26 - - - - - - - - - -
 
Date/Time
EDT
Wind Sea
Height
m
Swell Vis
km
Cloud Weather Temp
°C
Press
MSL
hPa
Rain since
9am
mm
Dir  Spd
kts
Gust
kts
Height
m
Period
s
Dir
16/11:30pm SW 21 27 - - - - - - - - - -
16/11:00pm SW 20 26 - - - - - - - - - -
16/10:30pm SW 22 28 - - - - - - - - - -
16/10:00pm SW 23 28 - - - - - - - - - -
16/09:30pm SW 25 31 - - - - - - - - - -
16/09:00pm SW 27 32 - - - - - - - - - -
16/08:30pm SW 26 30 - - - - - - - - - -
16/08:00pm SW 29 34 - - - - - - - - - -
16/07:30pm SW 28 32 - - - - - - - - - -
16/07:00pm SW 30 36 - - - - - - - - - -
16/06:30pm SW 30 36 - - - - - - - - - -
16/06:00pm SW 29 34 - - - - - - - - - -
16/05:30pm SW 24 30 - - - - - - - - - -

Other formats

Comma delimited format used in spreadsheet applications
http://www.bom.gov.au/fwo/IDV60701/IDV60701.94853.axf

JavaScript Object Notation format (JSON) in row-major order
http://www.bom.gov.au/fwo/IDV60701/IDV60701.94853.json

Data quality

Most of these data are generated automatically and are frequently updated. Quality checks on data are not normally performed. It is possible for incorrect values to appear. Refer to information at About Latest Weather Observations and please check the disclaimer before using these data.